Time;durP1;ratioP1;P1;durP2;ratioP2;P2;SDS_P1;SDS_P2;PMS_P1;PMS_P2;Temp;Humidity;BMP_temperature;BMP_pressure;BME280_temperature;BME280_humidity;BME280_pressure;Samples;Min_cycle;Max_cycle;Signal;HPM_P1;HPM_P2
2023/03/17 00:01:39;;;;;;;4.00;0.70;;;2.00;98.50;;;;;;4976747;28;20186;-81
2023/03/17 00:04:09;;;;;;;0.73;0.50;;;2.00;98.50;;;;;;4976419;28;20284;-80
2023/03/17 00:06:36;;;;;;;0.37;0.37;;;2.00;98.50;;;;;;4994243;28;20225;-80
2023/03/17 00:09:02;;;;;;;0.30;0.30;;;2.00;98.50;;;;;;4978456;28;20660;-81
2023/03/17 00:11:28;;;;;;;0.40;0.40;;;2.00;98.50;;;;;;4979490;28;20251;-81
2023/03/17 00:13:54;;;;;;;0.50;0.50;;;2.00;98.50;;;;;;4980399;28;20660;-81
2023/03/17 00:16:22;;;;;;;0.60;0.60;;;1.90;98.50;;;;;;4977403;28;20645;-81
2023/03/17 00:18:49;;;;;;;0.30;0.20;;;1.90;98.50;;;;;;4980301;28;20582;-81
2023/03/17 00:21:29;;;;;;;0.70;0.40;;;2.00;98.50;;;;;;4977604;28;20256;-82
2023/03/17 00:23:56;;;;;;;0.20;0.20;;;2.00;98.50;;;;;;4977738;28;20231;-81
2023/03/17 00:26:23;;;;;;;1.37;0.57;;;2.00;98.50;;;;;;4977803;28;20656;-81
2023/03/17 00:28:49;;;;;;;0.30;0.30;;;2.00;98.50;;;;;;4981391;28;20667;-82
2023/03/17 00:31:21;;;;;;;0.30;0.30;;;2.10;98.50;;;;;;4975970;28;20205;-81
2023/03/17 00:33:49;;;;;;;0.30;0.30;;;2.00;98.50;;;;;;4981901;28;20183;-81
2023/03/17 00:36:18;;;;;;;0.37;0.37;;;2.10;98.50;;;;;;4979069;28;20781;-82
2023/03/17 00:38:44;;;;;;;0.40;0.40;;;2.10;98.50;;;;;;4977163;28;20637;-81
2023/03/17 00:41:11;;;;;;;0.30;0.30;;;2.10;98.50;;;;;;4977121;28;20263;-82
2023/03/17 00:43:37;;;;;;;0.43;0.43;;;2.00;98.50;;;;;;4976070;28;20652;-81
2023/03/17 00:46:34;;;;;;;0.57;0.50;;;2.00;98.50;;;;;;4977893;28;20214;-82
2023/03/17 00:49:21;;;;;;;0.17;0.17;;;2.00;98.50;;;;;;4991536;28;20295;-82
2023/03/17 00:51:48;;;;;;;0.27;0.27;;;2.10;98.50;;;;;;4976342;28;20202;-81
2023/03/17 00:54:15;;;;;;;0.70;0.70;;;2.10;98.50;;;;;;4976538;28;20182;-81
2023/03/17 00:56:42;;;;;;;0.73;0.73;;;2.00;98.50;;;;;;4978169;28;20185;-81
2023/03/17 00:59:23;;;;;;;0.20;0.20;;;2.10;98.50;;;;;;4977150;28;20204;-82
2023/03/17 01:01:49;;;;;;;0.27;0.27;;;2.10;98.50;;;;;;4977416;28;20296;-80
2023/03/17 01:04:14;;;;;;;0.40;0.40;;;2.10;98.50;;;;;;4979982;28;20182;-80
2023/03/17 01:06:41;;;;;;;0.40;0.40;;;2.10;98.50;;;;;;4975548;28;20220;-81
2023/03/17 01:09:07;;;;;;;0.37;0.37;;;2.10;98.50;;;;;;4980264;28;20185;-81
2023/03/17 01:11:32;;;;;;;0.93;0.60;;;2.10;98.50;;;;;;4983382;28;20573;-81
2023/03/17 01:13:58;;;;;;;0.40;0.40;;;2.00;98.50;;;;;;4973168;28;20240;-81
2023/03/17 01:16:24;;;;;;;0.50;0.30;;;2.00;98.50;;;;;;4982065;28;20256;-81
2023/03/17 01:18:50;;;;;;;0.30;0.30;;;2.10;98.50;;;;;;4980035;28;20334;-81
2023/03/17 01:21:15;;;;;;;0.30;0.30;;;2.10;98.50;;;;;;4978329;28;20224;-80
2023/03/17 01:23:42;;;;;;;0.30;0.30;;;2.10;98.50;;;;;;4978095;28;20177;-80
2023/03/17 01:26:08;;;;;;;0.27;0.27;;;2.10;98.50;;;;;;4976902;28;20994;-81
2023/03/17 01:28:34;;;;;;;0.40;0.40;;;2.10;98.50;;;;;;4980410;28;20247;-81
2023/03/17 01:31:01;;;;;;;0.57;0.50;;;2.10;98.50;;;;;;4974105;28;20609;-81
2023/03/17 01:33:27;;;;;;;0.70;0.50;;;2.10;98.50;;;;;;4976897;28;20182;-80
2023/03/17 01:35:53;;;;;;;0.23;0.23;;;2.10;98.50;;;;;;4977796;28;20189;-81
2023/03/17 01:38:19;;;;;;;0.40;0.40;;;2.10;98.50;;;;;;4976032;28;20319;-82
2023/03/17 01:40:48;;;;;;;0.10;0.10;;;2.10;98.50;;;;;;4978174;28;20174;-80
2023/03/17 01:43:21;;;;;;;0.20;0.20;;;2.20;98.50;;;;;;4977751;28;20214;-80
2023/03/17 01:46:28;;;;;;;0.37;0.37;;;2.20;98.50;;;;;;4975285;28;20305;-80
2023/03/17 01:49:04;;;;;;;0.13;0.13;;;2.20;98.50;;;;;;4963190;28;21069;-80
2023/03/17 01:51:38;;;;;;;0.20;0.20;;;2.20;98.50;;;;;;4962078;28;20197;-80
2023/03/17 01:54:10;;;;;;;0.30;0.30;;;2.20;98.40;;;;;;4961824;28;20234;-80
2023/03/17 01:56:38;;;;;;;0.20;0.20;;;2.20;98.30;;;;;;4962644;28;20273;-80
2023/03/17 01:59:08;;;;;;;0.20;0.20;;;2.20;98.20;;;;;;4960228;28;20213;-81
2023/03/17 02:01:39;;;;;;;0.20;0.20;;;2.20;98.20;;;;;;4960893;28;20202;-81
2023/03/17 02:04:06;;;;;;;0.37;0.30;;;2.20;98.20;;;;;;4962038;28;20805;-81
2023/03/17 02:06:33;;;;;;;0.30;0.30;;;2.20;98.20;;;;;;4963864;28;20328;-81
2023/03/17 02:09:00;;;;;;;0.33;0.33;;;2.20;98.20;;;;;;4964712;28;20192;-81
2023/03/17 02:11:27;;;;;;;0.43;0.43;;;2.20;98.10;;;;;;4949025;28;20182;-80
2023/03/17 02:13:53;;;;;;;0.47;0.27;;;2.20;98.00;;;;;;4966226;28;20194;-81
2023/03/17 02:16:20;;;;;;;0.20;0.20;;;2.20;97.90;;;;;;4964117;28;20190;-81
2023/03/17 02:18:46;;;;;;;0.20;0.20;;;2.20;98.00;;;;;;4964598;28;20261;-81
2023/03/17 02:21:32;;;;;;;0.50;0.50;;;2.20;98.20;;;;;;4948494;28;20186;-80
2023/03/17 02:24:01;;;;;;;0.13;0.13;;;2.20;98.40;;;;;;4965275;28;20202;-81
2023/03/17 02:26:30;;;;;;;0.93;0.50;;;2.20;98.30;;;;;;4976003;28;20698;-81
2023/03/17 02:28:56;;;;;;;0.30;0.30;;;2.20;98.30;;;;;;4977490;28;20261;-81
2023/03/17 02:31:24;;;;;;;0.53;0.27;;;2.20;98.10;;;;;;4979719;28;20186;-81
2023/03/17 02:33:51;;;;;;;0.30;0.30;;;2.20;98.00;;;;;;4978609;28;20759;-80
2023/03/17 02:36:16;;;;;;;0.17;0.17;;;2.20;98.00;;;;;;4980947;28;20177;-80
2023/03/17 02:38:42;;;;;;;0.30;0.30;;;2.20;98.10;;;;;;4982409;28;20267;-81
2023/03/17 02:41:08;;;;;;;0.43;0.43;;;2.20;98.40;;;;;;4981479;28;20226;-80
2023/03/17 02:43:35;;;;;;;0.40;0.40;;;2.20;98.40;;;;;;4982049;28;20240;-80
2023/03/17 02:46:01;;;;;;;0.33;0.33;;;2.20;98.50;;;;;;4982651;28;20221;-80
2023/03/17 02:48:27;;;;;;;0.20;0.20;;;2.20;98.50;;;;;;4983997;28;20186;-81
2023/03/17 02:50:52;;;;;;;0.40;0.40;;;2.20;98.40;;;;;;4979982;28;20197;-81
2023/03/17 02:53:18;;;;;;;0.23;0.23;;;2.20;98.20;;;;;;4985197;28;20178;-80
2023/03/17 02:55:44;;;;;;;1.53;0.30;;;2.20;98.10;;;;;;4975762;28;20189;-80
2023/03/17 02:58:10;;;;;;;0.30;0.30;;;2.20;98.20;;;;;;4981463;28;20182;-80
2023/03/17 03:00:37;;;;;;;0.30;0.30;;;2.20;98.20;;;;;;4980764;28;20189;-80
2023/03/17 03:03:04;;;;;;;0.33;0.33;;;2.20;98.20;;;;;;4975441;28;20582;-80
2023/03/17 03:05:30;;;;;;;0.43;0.43;;;2.30;98.20;;;;;;4976403;28;20214;-81
2023/03/17 03:07:56;;;;;;;0.40;0.20;;;2.30;98.10;;;;;;4980280;28;20182;-81
2023/03/17 03:10:22;;;;;;;0.40;0.40;;;2.30;98.10;;;;;;4977761;28;20672;-81
2023/03/17 03:12:48;;;;;;;0.33;0.33;;;2.30;97.80;;;;;;4977977;28;20189;-81
2023/03/17 03:15:14;;;;;;;0.30;0.30;;;2.30;97.60;;;;;;4979064;28;20186;-81
2023/03/17 03:17:40;;;;;;;0.30;0.30;;;2.30;97.50;;;;;;4981122;28;20186;-81
2023/03/17 03:20:09;;;;;;;0.40;0.33;;;2.30;97.30;;;;;;4978751;28;20182;-80
2023/03/17 03:22:35;;;;;;;0.20;0.20;;;2.30;97.30;;;;;;4979928;28;20186;-81
2023/03/17 03:25:01;;;;;;;0.37;0.37;;;2.30;97.30;;;;;;4980597;28;20229;-80
2023/03/17 03:27:26;;;;;;;0.23;0.23;;;2.30;97.20;;;;;;4978457;28;20672;-80
2023/03/17 03:29:52;;;;;;;0.73;0.73;;;2.20;97.20;;;;;;4976910;28;20255;-80
2023/03/17 03:32:18;;;;;;;0.50;0.50;;;2.20;97.20;;;;;;4983559;28;20178;-80
2023/03/17 03:34:43;;;;;;;0.30;0.30;;;2.20;97.20;;;;;;4982397;28;20185;-80
2023/03/17 03:37:09;;;;;;;0.30;0.30;;;2.20;97.20;;;;;;4979064;28;20185;-81
2023/03/17 03:39:36;;;;;;;0.40;0.33;;;2.20;97.20;;;;;;4982001;28;20181;-81
2023/03/17 03:42:01;;;;;;;0.50;0.50;;;2.20;97.30;;;;;;4978745;28;20281;-82
2023/03/17 03:44:27;;;;;;;0.37;0.37;;;2.20;97.30;;;;;;4978583;28;20261;-79
2023/03/17 03:46:53;;;;;;;0.20;0.20;;;2.20;97.40;;;;;;4979441;28;20249;-82
2023/03/17 03:49:18;;;;;;;0.37;0.37;;;2.20;97.50;;;;;;4979035;28;20185;-80
2023/03/17 03:51:44;;;;;;;0.40;0.40;;;2.20;97.50;;;;;;4978660;28;20197;-80
2023/03/17 03:54:10;;;;;;;0.20;0.20;;;2.20;97.50;;;;;;4981083;28;20624;-80
2023/03/17 03:56:35;;;;;;;0.37;0.37;;;2.20;97.40;;;;;;4975447;28;20296;-80
2023/03/17 03:59:01;;;;;;;0.40;0.40;;;2.20;97.30;;;;;;4977334;28;20190;-80
2023/03/17 04:01:27;;;;;;;0.40;0.40;;;2.20;97.40;;;;;;4979081;28;20186;-80
2023/03/17 04:03:52;;;;;;;0.57;0.57;;;2.20;97.50;;;;;;4977322;28;20186;-81
2023/03/17 04:06:18;;;;;;;0.50;0.50;;;2.20;97.60;;;;;;4978179;28;20309;-80
2023/03/17 04:08:44;;;;;;;0.30;0.30;;;2.20;97.60;;;;;;4976959;28;20182;-80
2023/03/17 04:11:10;;;;;;;0.93;0.40;;;2.20;97.80;;;;;;4980294;28;20191;-80
2023/03/17 04:13:36;;;;;;;0.20;0.20;;;2.20;97.60;;;;;;4978393;28;20185;-80
2023/03/17 04:16:03;;;;;;;0.20;0.20;;;2.20;97.60;;;;;;4978608;28;20197;-80
2023/03/17 04:18:30;;;;;;;0.20;0.20;;;2.30;97.50;;;;;;4979909;28;20182;-80
2023/03/17 04:20:56;;;;;;;0.20;0.20;;;2.30;97.40;;;;;;4980674;28;20178;-80
2023/03/17 04:23:21;;;;;;;0.33;0.33;;;2.30;97.40;;;;;;4977729;28;20185;-80
2023/03/17 04:25:49;;;;;;;0.20;0.20;;;2.40;97.30;;;;;;4977627;28;20245;-79
2023/03/17 04:28:15;;;;;;;0.13;0.13;;;2.40;97.20;;;;;;4977430;28;20598;-80
2023/03/17 04:30:41;;;;;;;0.20;0.20;;;2.40;97.10;;;;;;4977823;28;20178;-80
2023/03/17 04:33:07;;;;;;;0.40;0.40;;;2.40;97.00;;;;;;4970838;28;20182;-81
2023/03/17 04:35:32;;;;;;;0.40;0.40;;;2.40;97.00;;;;;;4978762;28;20190;-80
2023/03/17 04:37:58;;;;;;;0.37;0.37;;;2.40;97.10;;;;;;4978887;28;20189;-81
2023/03/17 04:40:24;;;;;;;0.63;0.63;;;2.40;97.00;;;;;;4978619;28;20204;-82
2023/03/17 04:42:49;;;;;;;0.50;0.50;;;2.40;96.90;;;;;;4978115;28;20284;-81
2023/03/17 04:45:15;;;;;;;0.50;0.50;;;2.40;96.80;;;;;;4977344;28;20212;-80
2023/03/17 04:47:41;;;;;;;0.80;0.80;;;2.40;96.70;;;;;;4976894;28;20179;-83
2023/03/17 04:50:08;;;;;;;0.50;0.50;;;2.40;96.80;;;;;;4974855;28;20179;-80
2023/03/17 04:52:35;;;;;;;0.50;0.50;;;2.40;96.80;;;;;;4974920;28;20197;-81
2023/03/17 04:55:01;;;;;;;0.37;0.37;;;2.40;96.70;;;;;;4977197;28;20197;-81
2023/03/17 04:57:27;;;;;;;1.13;0.87;;;2.40;96.60;;;;;;4980098;28;20186;-81
2023/03/17 04:59:52;;;;;;;0.50;0.50;;;2.40;96.60;;;;;;4976290;28;20190;-81
2023/03/17 05:02:18;;;;;;;0.73;0.73;;;2.40;96.60;;;;;;4976130;28;20317;-81
2023/03/17 05:04:47;;;;;;;0.40;0.30;;;2.40;96.60;;;;;;4981651;28;20193;-79
2023/03/17 05:07:13;;;;;;;0.50;0.50;;;2.40;96.70;;;;;;4977742;28;20217;-78
2023/03/17 05:09:39;;;;;;;0.40;0.30;;;2.50;96.70;;;;;;4979350;28;20193;-78
2023/03/17 05:12:06;;;;;;;0.40;0.40;;;2.50;96.70;;;;;;4974451;28;20186;-79
2023/03/17 05:14:32;;;;;;;0.40;0.40;;;2.50;96.80;;;;;;4983002;28;20371;-78
2023/03/17 05:16:57;;;;;;;0.53;0.53;;;2.50;96.60;;;;;;4976349;28;20236;-78
2023/03/17 05:19:23;;;;;;;0.67;0.67;;;2.50;96.60;;;;;;4977217;28;20181;-78
2023/03/17 05:21:48;;;;;;;0.90;0.50;;;2.60;96.70;;;;;;4977348;28;20887;-83
2023/03/17 05:24:14;;;;;;;0.70;0.70;;;2.60;96.60;;;;;;4980959;28;20186;-80
2023/03/17 05:26:40;;;;;;;0.77;0.77;;;2.60;96.40;;;;;;4980226;28;20209;-81
2023/03/17 05:29:06;;;;;;;0.83;0.70;;;2.60;96.10;;;;;;4977719;28;20193;-78
2023/03/17 05:31:32;;;;;;;1.23;1.10;;;2.60;96.00;;;;;;4978124;28;20217;-79
2023/03/17 05:33:57;;;;;;;0.80;0.80;;;2.70;95.90;;;;;;4981346;28;20185;-78
2023/03/17 05:36:23;;;;;;;0.47;0.47;;;2.60;95.90;;;;;;4977826;28;20667;-79
2023/03/17 05:38:49;;;;;;;0.97;0.70;;;2.60;95.90;;;;;;4975329;28;20596;-79
2023/03/17 05:41:15;;;;;;;0.67;0.67;;;2.60;95.70;;;;;;4984664;28;20205;-79
2023/03/17 05:43:41;;;;;;;0.60;0.60;;;2.60;95.70;;;;;;4978204;28;20182;-76
2023/03/17 05:46:08;;;;;;;3.93;1.03;;;2.60;95.70;;;;;;4981159;28;20205;-79
2023/03/17 05:48:34;;;;;;;0.73;0.73;;;2.60;96.00;;;;;;4976712;28;20714;-81
2023/03/17 05:51:00;;;;;;;1.30;0.97;;;2.60;96.00;;;;;;4979740;28;20558;-81
2023/03/17 05:53:27;;;;;;;0.70;0.70;;;2.60;95.90;;;;;;4979598;28;20303;-80
2023/03/17 05:55:53;;;;;;;0.63;0.63;;;2.70;95.80;;;;;;4975507;28;20201;-79
2023/03/17 05:58:19;;;;;;;0.67;0.53;;;2.60;95.90;;;;;;4975391;28;20186;-80
2023/03/17 06:00:45;;;;;;;2.23;0.97;;;2.60;96.10;;;;;;4980609;28;20170;-79
2023/03/17 06:03:11;;;;;;;0.97;0.50;;;2.70;96.10;;;;;;4975009;28;20186;-79
2023/03/17 06:05:37;;;;;;;0.30;0.30;;;2.70;96.20;;;;;;4973559;28;20275;-78
2023/03/17 06:08:04;;;;;;;0.77;0.50;;;2.80;96.10;;;;;;4969782;28;20640;-79
2023/03/17 06:10:30;;;;;;;0.70;0.43;;;2.80;95.80;;;;;;4978420;28;20186;-79
2023/03/17 06:12:57;;;;;;;0.73;0.53;;;2.90;95.60;;;;;;4983198;28;20169;-79
2023/03/17 06:15:24;;;;;;;0.50;0.50;;;2.90;95.70;;;;;;4979990;28;20685;-79
2023/03/17 06:17:50;;;;;;;0.40;0.40;;;2.90;95.50;;;;;;4974040;28;20981;-78
2023/03/17 06:20:16;;;;;;;0.23;0.23;;;3.00;95.40;;;;;;4980058;28;20183;-80
2023/03/17 06:22:42;;;;;;;1.00;0.70;;;3.00;95.30;;;;;;4980929;28;20240;-80
2023/03/17 06:25:09;;;;;;;1.30;0.43;;;3.00;95.10;;;;;;4981317;28;20218;-79
2023/03/17 06:27:36;;;;;;;0.33;0.33;;;3.00;94.80;;;;;;4975754;28;20761;-79
2023/03/17 06:30:03;;;;;;;0.30;0.30;;;3.00;94.70;;;;;;4977075;28;20626;-79
2023/03/17 06:32:29;;;;;;;0.40;0.40;;;3.00;94.80;;;;;;4973041;28;20390;-78
2023/03/17 06:34:55;;;;;;;0.43;0.43;;;3.10;94.90;;;;;;4977011;28;20181;-79
2023/03/17 06:37:21;;;;;;;1.40;0.50;;;3.20;94.70;;;;;;4976498;28;20209;-78
2023/03/17 06:39:47;;;;;;;0.70;0.47;;;3.20;94.30;;;;;;4974529;28;20189;-78
2023/03/17 06:42:13;;;;;;;0.93;0.93;;;3.30;94.20;;;;;;4971718;28;20182;-79
2023/03/17 06:44:38;;;;;;;0.50;0.50;;;3.40;94.10;;;;;;4975802;28;20194;-79
2023/03/17 06:47:05;;;;;;;0.60;0.60;;;3.40;93.70;;;;;;4975651;28;20220;-78
2023/03/17 06:49:31;;;;;;;0.90;0.90;;;3.50;94.20;;;;;;4980503;28;20654;-78
2023/03/17 06:51:57;;;;;;;0.70;0.63;;;3.50;93.20;;;;;;4977741;28;20575;-78
2023/03/17 06:54:24;;;;;;;0.70;0.70;;;3.50;93.00;;;;;;4981966;28;20252;-79
2023/03/17 06:56:51;;;;;;;0.87;0.87;;;3.60;93.80;;;;;;4978883;28;20232;-80
2023/03/17 06:59:18;;;;;;;0.93;0.93;;;3.70;94.00;;;;;;4980107;28;20199;-80
2023/03/17 07:01:44;;;;;;;2.57;0.90;;;3.80;93.40;;;;;;4981284;28;20185;-79
2023/03/17 07:04:10;;;;;;;0.40;0.40;;;3.90;93.20;;;;;;4979675;28;20183;-79
2023/03/17 07:06:36;;;;;;;0.93;0.93;;;3.90;93.00;;;;;;4976980;28;20217;-79
2023/03/17 07:09:02;;;;;;;4.23;1.43;;;3.90;92.50;;;;;;4975996;28;20221;-79
2023/03/17 07:11:29;;;;;;;1.10;1.10;;;4.00;92.50;;;;;;4977873;28;20177;-78
2023/03/17 07:13:55;;;;;;;1.90;1.40;;;4.00;92.40;;;;;;4975119;28;20217;-79
2023/03/17 07:16:21;;;;;;;3.30;1.17;;;4.00;91.50;;;;;;4979399;28;20248;-79
2023/03/17 07:18:47;;;;;;;0.70;0.70;;;4.00;91.00;;;;;;4977518;28;20189;-80
2023/03/17 07:21:13;;;;;;;0.63;0.63;;;4.00;91.70;;;;;;4980180;28;20245;-79
2023/03/17 07:23:38;;;;;;;1.00;1.00;;;4.10;91.50;;;;;;4980355;28;20636;-80
2023/03/17 07:26:04;;;;;;;1.33;0.87;;;4.10;91.40;;;;;;4979298;28;20221;-79
2023/03/17 07:28:30;;;;;;;1.10;0.90;;;4.20;91.70;;;;;;4979835;28;20187;-79
2023/03/17 07:30:56;;;;;;;0.57;0.57;;;4.30;91.70;;;;;;4977991;28;20190;-79
2023/03/17 07:33:23;;;;;;;0.80;0.80;;;4.40;91.10;;;;;;4980586;28;20183;-80
2023/03/17 07:35:50;;;;;;;3.50;0.73;;;4.40;91.50;;;;;;4976111;28;20190;-80
2023/03/17 07:38:17;;;;;;;1.10;1.00;;;4.50;90.90;;;;;;4981483;28;20637;-79
2023/03/17 07:40:49;;;;;;;1.00;1.00;;;4.60;90.20;;;;;;4984784;28;20188;-80
2023/03/17 07:43:15;;;;;;;1.47;0.90;;;4.70;90.70;;;;;;4980919;28;20179;-79
2023/03/17 07:45:42;;;;;;;0.70;0.70;;;4.70;90.80;;;;;;4977221;28;20864;-79
2023/03/17 07:48:08;;;;;;;0.90;0.90;;;4.70;89.50;;;;;;4978336;28;20177;-79
2023/03/17 07:50:34;;;;;;;1.10;1.00;;;4.80;89.70;;;;;;4979854;28;20200;-80
2023/03/17 07:53:01;;;;;;;0.53;0.53;;;4.80;89.00;;;;;;4976344;28;20247;-79
2023/03/17 07:55:28;;;;;;;2.20;0.83;;;4.90;89.10;;;;;;4983972;28;20182;-80
2023/03/17 07:57:54;;;;;;;0.73;0.73;;;4.90;88.70;;;;;;4980206;28;20665;-80
2023/03/17 08:00:20;;;;;;;1.13;0.70;;;5.00;88.80;;;;;;4977196;28;20190;-79
2023/03/17 08:02:46;;;;;;;0.40;0.40;;;5.10;88.40;;;;;;4976751;28;20182;-78
2023/03/17 08:05:15;;;;;;;0.73;0.73;;;5.10;87.60;;;;;;4975232;28;20248;-79
2023/03/17 08:07:41;;;;;;;0.80;0.80;;;5.20;89.20;;;;;;4975406;28;20561;-76
2023/03/17 08:10:08;;;;;;;0.70;0.70;;;5.20;88.40;;;;;;4976677;28;20189;-77
2023/03/17 08:12:35;;;;;;;1.70;0.83;;;5.20;86.10;;;;;;4978186;28;20265;-76
2023/03/17 08:15:01;;;;;;;0.50;0.50;;;5.20;86.60;;;;;;4975087;28;20825;-80
2023/03/17 08:17:27;;;;;;;0.97;0.93;;;5.10;86.40;;;;;;4976966;28;20178;-78
2023/03/17 08:19:53;;;;;;;1.30;0.97;;;5.20;87.10;;;;;;4976575;28;20244;-78
2023/03/17 08:22:19;;;;;;;1.17;0.93;;;5.30;87.20;;;;;;4977280;28;20182;-77
2023/03/17 08:24:45;;;;;;;1.03;1.03;;;5.30;86.00;;;;;;4978094;28;20714;-77
2023/03/17 08:27:12;;;;;;;2.77;1.10;;;5.40;87.00;;;;;;4979296;28;20206;-78
2023/03/17 08:29:38;;;;;;;1.30;1.20;;;5.40;87.00;;;;;;4973613;28;20675;-78
2023/03/17 08:32:04;;;;;;;0.97;0.93;;;5.40;86.00;;;;;;4976779;28;20190;-78
2023/03/17 08:34:30;;;;;;;3.80;0.70;;;5.50;85.40;;;;;;4977496;28;20186;-78
2023/03/17 08:36:56;;;;;;;0.77;0.77;;;5.60;86.90;;;;;;4979833;28;20190;-78
2023/03/17 08:39:22;;;;;;;3.20;0.80;;;5.60;86.10;;;;;;4978307;28;20209;-78
2023/03/17 08:41:47;;;;;;;1.23;1.07;;;5.60;85.10;;;;;;4977224;28;20281;-78
2023/03/17 08:44:13;;;;;;;1.10;1.00;;;5.60;85.10;;;;;;4977785;28;20711;-78
2023/03/17 08:46:40;;;;;;;1.07;1.03;;;5.70;84.80;;;;;;4974641;28;20374;-78
2023/03/17 08:49:06;;;;;;;1.53;1.43;;;5.80;85.00;;;;;;4975074;28;20192;-78
2023/03/17 08:51:34;;;;;;;1.07;1.07;;;5.90;85.70;;;;;;4979412;28;20182;-79
2023/03/17 08:54:00;;;;;;;1.00;1.00;;;5.90;84.40;;;;;;4981116;28;20256;-76
2023/03/17 08:56:26;;;;;;;1.50;1.40;;;6.00;84.20;;;;;;4976552;28;20272;-77
2023/03/17 08:58:52;;;;;;;1.40;1.40;;;6.10;84.10;;;;;;4976319;28;20190;-78
2023/03/17 09:01:19;;;;;;;1.17;0.93;;;6.10;83.80;;;;;;4976772;28;20212;-77
2023/03/17 09:03:45;;;;;;;1.33;1.33;;;6.20;83.80;;;;;;4978642;28;20188;-78
2023/03/17 09:06:12;;;;;;;1.10;1.10;;;6.30;83.60;;;;;;4976111;28;20217;-78
2023/03/17 09:08:40;;;;;;;1.50;1.40;;;6.20;82.60;;;;;;4974011;28;20192;-76
2023/03/17 09:11:07;;;;;;;2.13;1.27;;;6.30;82.90;;;;;;4975184;28;20188;-77
2023/03/17 09:13:34;;;;;;;1.07;1.07;;;6.30;82.90;;;;;;4977642;28;20244;-76
2023/03/17 09:16:00;;;;;;;1.03;1.03;;;6.40;83.10;;;;;;4975793;28;20182;-78
2023/03/17 09:18:26;;;;;;;1.73;1.27;;;6.50;82.60;;;;;;4976132;28;20201;-78
2023/03/17 09:20:52;;;;;;;1.30;1.20;;;6.60;83.10;;;;;;4974712;28;20658;-79
2023/03/17 09:23:18;;;;;;;1.40;1.40;;;6.70;82.90;;;;;;4975598;28;20747;-77
2023/03/17 09:25:43;;;;;;;4.13;1.33;;;6.90;83.30;;;;;;4977249;28;20205;-77
2023/03/17 09:28:12;;;;;;;1.17;1.07;;;7.00;83.10;;;;;;4976902;28;20949;-78
2023/03/17 09:30:41;;;;;;;0.90;0.90;;;7.20;82.70;;;;;;4979169;28;20189;-78
2023/03/17 09:33:09;;;;;;;1.33;1.13;;;7.40;81.80;;;;;;4970620;28;20213;-78
2023/03/17 09:35:35;;;;;;;1.70;1.33;;;7.60;81.70;;;;;;4967306;28;20206;-78
2023/03/17 09:38:00;;;;;;;0.60;0.60;;;7.80;80.90;;;;;;4965433;28;20209;-77
2023/03/17 09:40:31;;;;;;;0.87;0.87;;;7.90;80.40;;;;;;4965806;28;20240;-78
2023/03/17 09:43:15;;;;;;;0.83;0.83;;;8.00;80.20;;;;;;4964633;28;20216;-78
2023/03/17 09:45:42;;;;;;;1.00;1.00;;;8.10;78.90;;;;;;4967052;28;20320;-77
2023/03/17 09:48:45;;;;;;;1.00;1.00;;;8.20;78.90;;;;;;4961650;28;20213;-78
2023/03/17 09:51:16;;;;;;;1.43;1.40;;;8.30;78.00;;;;;;4969409;28;20250;-77
2023/03/17 09:53:53;;;;;;;1.93;1.13;;;8.30;76.10;;;;;;4962105;28;20228;-78
2023/03/17 09:56:19;;;;;;;1.57;1.10;;;8.40;76.00;;;;;;4967564;28;20733;-77
2023/03/17 09:59:24;;;;;;;1.50;1.40;;;8.40;76.30;;;;;;4964107;28;20860;-77
2023/03/17 10:01:49;;;;;;;1.10;1.10;;;8.50;77.50;;;;;;4903827;29;20223;-77
2023/03/17 10:04:17;;;;;;;1.37;1.27;;;8.60;76.80;;;;;;4909646;29;20747;-77
2023/03/17 10:06:45;;;;;;;1.30;1.27;;;8.60;77.10;;;;;;4902123;29;20725;-80
2023/03/17 10:09:26;;;;;;;3.37;1.33;;;8.50;75.30;;;;;;4902458;29;20267;-78
2023/03/17 10:12:33;;;;;;;1.03;1.03;;;8.30;74.30;;;;;;4887798;29;21634;-78
2023/03/17 10:15:12;;;;;;;1.00;1.00;;;8.20;75.40;;;;;;4856653;29;20229;-78
2023/03/17 10:17:40;;;;;;;1.20;1.20;;;8.20;76.20;;;;;;4858459;29;20305;-78
2023/03/17 10:20:10;;;;;;;1.27;1.17;;;8.20;76.30;;;;;;4858997;29;20277;-78
2023/03/17 10:22:52;;;;;;;1.83;0.97;;;8.20;76.40;;;;;;4863759;29;20194;-79
2023/03/17 10:25:25;;;;;;;1.27;1.10;;;8.20;75.30;;;;;;4853162;29;20280;-78
2023/03/17 10:27:56;;;;;;;0.93;0.93;;;8.30;75.40;;;;;;4853861;29;20194;-78
2023/03/17 10:30:23;;;;;;;4.63;1.00;;;8.30;74.20;;;;;;4868404;29;20304;-78
2023/03/17 10:32:50;;;;;;;1.50;1.00;;;8.30;75.80;;;;;;4867870;29;20597;-78
2023/03/17 10:35:17;;;;;;;1.20;1.10;;;8.40;76.20;;;;;;4868541;29;20193;-77
2023/03/17 10:37:45;;;;;;;1.30;1.20;;;8.40;75.00;;;;;;4886160;29;20207;-78
2023/03/17 10:40:27;;;;;;;1.30;1.20;;;8.30;73.10;;;;;;4924029;29;20689;-78
2023/03/17 10:43:00;;;;;;;1.43;1.33;;;8.30;75.00;;;;;;4911349;29;20187;-79
2023/03/17 10:45:31;;;;;;;1.13;1.13;;;8.30;74.00;;;;;;4927466;29;20317;-78
2023/03/17 10:48:00;;;;;;;1.43;1.40;;;8.30;73.70;;;;;;4925913;29;20188;-78
2023/03/17 10:50:30;;;;;;;1.37;1.27;;;8.30;73.90;;;;;;4911101;29;20190;-78
2023/03/17 10:52:59;;;;;;;0.90;0.90;;;8.30;73.80;;;;;;4980682;28;20193;-79
2023/03/17 10:55:41;;;;;;;0.93;0.93;;;8.30;74.20;;;;;;4977596;28;20194;-79
2023/03/17 10:58:14;;;;;;;0.80;0.80;;;8.30;73.70;;;;;;4977546;28;20181;-78
2023/03/17 11:00:55;;;;;;;1.80;1.23;;;8.40;74.60;;;;;;4979104;28;20289;-78
2023/03/17 11:03:23;;;;;;;5.17;1.30;;;8.50;73.80;;;;;;4979018;28;20285;-78
2023/03/17 11:06:13;;;;;;;0.77;0.77;;;8.50;73.20;;;;;;4977075;28;20303;-78
2023/03/17 11:08:44;;;;;;;1.20;1.20;;;8.60;73.30;;;;;;4980272;28;20226;-78
2023/03/17 11:11:33;;;;;;;1.20;1.20;;;8.70;74.10;;;;;;4997208;28;20200;-78
2023/03/17 11:14:10;;;;;;;1.33;1.23;;;8.90;73.60;;;;;;4982074;28;20181;-78
2023/03/17 11:16:39;;;;;;;1.37;1.27;;;9.00;74.90;;;;;;4979595;28;20189;-78
2023/03/17 11:19:13;;;;;;;3.57;1.00;;;9.00;72.10;;;;;;4981995;28;20185;-78
2023/03/17 11:21:49;;;;;;;1.27;1.17;;;9.00;72.30;;;;;;4982650;28;20244;-78
2023/03/17 11:24:31;;;;;;;1.00;1.00;;;9.00;72.50;;;;;;4979983;28;20181;-78
2023/03/17 11:27:05;;;;;;;1.55;1.50;;;9.20;72.60;;;;;;4980911;28;20214;-78
2023/03/17 11:30:08;;;;;;;1.23;1.23;;;9.40;72.70;;;;;;4979733;28;20190;-78
2023/03/17 11:32:42;;;;;;;0.82;0.82;;;9.60;72.40;;;;;;4978462;28;20173;-78
2023/03/17 11:35:23;;;;;;;0.65;0.65;;;10.00;71.40;;;;;;4981683;28;20180;-78
2023/03/17 11:38:04;;;;;;;1.42;0.82;;;10.50;70.80;;;;;;4980482;28;20193;-77
2023/03/17 11:41:03;;;;;;;0.98;0.98;;;11.00;69.80;;;;;;4977115;28;20259;-78
2023/03/17 11:43:36;;;;;;;2.20;1.05;;;11.50;68.50;;;;;;4966555;28;20982;-79
2023/03/17 11:46:14;;;;;;;0.80;0.80;;;11.80;69.30;;;;;;4970645;28;20718;-79
2023/03/17 11:48:48;;;;;;;1.48;0.90;;;11.90;66.80;;;;;;4972338;28;20201;-80
2023/03/17 11:51:20;;;;;;;1.05;1.05;;;12.00;65.50;;;;;;4967661;28;20201;-79
2023/03/17 11:54:04;;;;;;;0.88;0.88;;;11.90;65.70;;;;;;4974026;28;20205;-79
2023/03/17 11:57:10;;;;;;;0.85;0.77;;;11.90;65.20;;;;;;4981340;28;20185;-78
2023/03/17 11:59:51;;;;;;;1.60;1.00;;;12.00;64.60;;;;;;4945401;28;20198;-79
2023/03/17 12:02:29;;;;;;;4.20;0.88;;;12.10;67.00;;;;;;4948642;29;20187;-74
2023/03/17 12:05:09;;;;;;;1.05;1.00;;;12.10;65.60;;;;;;4944277;28;20357;-74
2023/03/17 12:07:44;;;;;;;1.00;0.85;;;12.10;64.60;;;;;;4942908;28;20230;-74
2023/03/17 12:10:22;;;;;;;0.70;0.70;;;11.80;62.80;;;;;;4942209;28;20704;-79
2023/03/17 12:12:57;;;;;;;0.88;0.88;;;11.80;62.60;;;;;;4931277;28;20242;-78
2023/03/17 12:15:38;;;;;;;1.45;1.08;;;11.80;64.10;;;;;;4931571;28;20210;-74
2023/03/17 12:18:22;;;;;;;1.20;1.10;;;11.90;64.20;;;;;;4934069;28;20211;-82
2023/03/17 12:20:56;;;;;;;0.90;0.90;;;11.80;62.90;;;;;;4937011;28;20685;-77
2023/03/17 12:23:35;;;;;;;1.00;1.00;;;11.90;62.90;;;;;;4920067;29;20247;-79
2023/03/17 12:26:07;;;;;;;0.90;0.82;;;12.00;63.90;;;;;;4938604;28;20640;-81
2023/03/17 12:29:01;;;;;;;3.22;0.93;;;12.30;63.90;;;;;;4941797;28;20431;-83
2023/03/17 12:31:32;;;;;;;0.63;0.63;;;12.50;63.90;;;;;;4923923;29;20215;-81
2023/03/17 12:34:49;;;;;;;0.80;0.80;;;12.80;62.50;;;;;;4923776;29;20195;-82
2023/03/17 12:37:16;;;;;;;1.52;0.65;;;13.00;62.70;;;;;;4921509;29;20635;-75
2023/03/17 12:39:52;;;;;;;0.88;0.88;;;13.20;62.00;;;;;;4919925;29;20196;-80
2023/03/17 12:42:39;;;;;;;1.08;1.00;;;13.50;61.70;;;;;;4935223;29;20567;-80
2023/03/17 12:45:26;;;;;;;0.55;0.55;;;13.90;62.70;;;;;;4942835;29;20595;-81
2023/03/17 12:48:06;;;;;;;1.10;1.10;;;14.00;59.70;;;;;;4947847;29;20215;-81
2023/03/17 12:50:31;;;;;;;1.13;1.02;;;14.20;60.30;;;;;;4936579;29;20279;-79
2023/03/17 12:53:23;;;;;;;0.50;0.50;;;14.50;60.10;;;;;;4946972;29;20203;-79
2023/03/17 12:55:51;;;;;;;0.55;0.55;;;14.90;59.20;;;;;;4926097;29;20215;-79
2023/03/17 12:58:39;;;;;;;0.60;0.60;;;15.30;59.20;;;;;;4930506;29;20234;-79
2023/03/17 13:01:07;;;;;;;0.45;0.45;;;15.50;58.80;;;;;;4938620;29;20215;-79
2023/03/17 13:03:38;;;;;;;0.50;0.50;;;15.80;56.10;;;;;;4937521;29;20613;-78
2023/03/17 13:06:16;;;;;;;0.70;0.68;;;16.40;59.20;;;;;;4936509;29;20232;-78
2023/03/17 13:08:41;;;;;;;0.40;0.40;;;17.00;56.10;;;;;;4952292;29;20218;-78